Time;durP1;ratioP1;P1;durP2;ratioP2;P2;SDS_P1;SDS_P2;PMS_P1;PMS_P2;Temp;Humidity;BMP_temperature;BMP_pressure;BME280_temperature;BME280_humidity;BME280_pressure;Samples;Min_cycle;Max_cycle;Signal;HPM_P1;HPM_P2
2021/06/17 00:00:42;;;;;;;10.43;9.40;;;17.20;99.90;;;;;;5094078;28;20036;-89
2021/06/17 00:03:08;;;;;;;11.63;9.88;;;17.20;99.90;;;;;;5097129;28;20031;-89
2021/06/17 00:05:35;;;;;;;10.05;9.07;;;17.20;99.90;;;;;;5120371;28;20016;-89
2021/06/17 00:08:05;;;;;;;8.55;7.78;;;17.20;99.90;;;;;;5098936;28;20028;-89
2021/06/17 00:10:45;;;;;;;9.35;8.45;;;17.10;99.90;;;;;;5094108;28;20058;-89
2021/06/17 00:13:15;;;;;;;10.18;9.18;;;17.10;99.90;;;;;;5094041;28;20023;-89
2021/06/17 00:15:42;;;;;;;10.27;9.15;;;17.10;99.90;;;;;;5093793;28;20557;-89
2021/06/17 00:18:09;;;;;;;11.15;9.30;;;17.10;99.90;;;;;;5093892;28;20024;-89
2021/06/17 00:20:35;;;;;;;10.23;9.32;;;17.10;99.90;;;;;;5093806;28;20101;-89
2021/06/17 00:23:01;;;;;;;10.52;8.90;;;17.20;99.90;;;;;;5093753;28;20024;-89
2021/06/17 00:25:27;;;;;;;9.95;8.95;;;17.20;99.90;;;;;;5093697;28;20069;-89
2021/06/17 00:27:53;;;;;;;9.45;8.48;;;17.20;99.90;;;;;;5094794;28;20049;-89
2021/06/17 00:30:20;;;;;;;9.35;8.43;;;17.30;99.90;;;;;;5093620;28;20021;-89
2021/06/17 00:32:46;;;;;;;8.32;7.63;;;17.40;99.90;;;;;;5093424;28;20023;-89
2021/06/17 00:35:13;;;;;;;7.78;7.05;;;17.40;99.90;;;;;;5093536;28;20076;-89
2021/06/17 00:37:39;;;;;;;8.23;7.05;;;17.50;99.90;;;;;;5094643;28;20477;-89
2021/06/17 00:40:08;;;;;;;8.43;7.63;;;17.50;99.90;;;;;;5093436;28;20028;-89
2021/06/17 00:42:35;;;;;;;7.00;6.40;;;17.40;99.90;;;;;;5093567;28;20027;-89
2021/06/17 00:45:01;;;;;;;6.68;6.07;;;17.40;99.90;;;;;;5093577;28;20020;-89
2021/06/17 00:47:27;;;;;;;6.93;6.32;;;17.40;99.90;;;;;;5093485;28;20031;-89
2021/06/17 00:49:53;;;;;;;6.80;6.20;;;17.40;99.90;;;;;;5093356;28;20023;-89
2021/06/17 00:52:20;;;;;;;6.50;5.90;;;17.40;99.90;;;;;;5093141;28;20416;-89
2021/06/17 00:54:45;;;;;;;6.70;6.10;;;17.40;99.90;;;;;;5093165;28;20035;-89
2021/06/17 00:57:14;;;;;;;6.63;6.07;;;17.40;99.90;;;;;;5094651;28;20032;-89
2021/06/17 00:59:40;;;;;;;6.15;5.65;;;17.40;99.90;;;;;;5093153;28;20052;-89
2021/06/17 01:02:06;;;;;;;8.30;6.75;;;17.40;99.90;;;;;;5093550;28;20090;-89
2021/06/17 01:04:33;;;;;;;7.03;6.38;;;17.40;99.90;;;;;;5093109;28;20020;-89
2021/06/17 01:06:58;;;;;;;6.65;6.05;;;17.40;99.90;;;;;;5092986;28;20496;-89
2021/06/17 01:10:03;;;;;;;7.28;6.57;;;17.40;99.90;;;;;;5092897;28;20370;-89
2021/06/17 01:12:53;;;;;;;7.00;6.18;;;17.40;99.90;;;;;;5093216;28;20040;-90
2021/06/17 01:15:21;;;;;;;6.63;6.03;;;17.40;99.90;;;;;;5092725;28;20071;-90
2021/06/17 01:18:11;;;;;;;6.82;6.22;;;17.40;99.90;;;;;;5092826;28;20093;-90
2021/06/17 01:20:42;;;;;;;6.60;6.00;;;17.40;99.90;;;;;;5092590;28;20042;-89
2021/06/17 01:23:49;;;;;;;7.38;6.53;;;17.40;99.90;;;;;;5092691;28;20032;-89
2021/06/17 01:26:52;;;;;;;7.28;6.65;;;17.40;99.90;;;;;;5092646;28;20035;-89
2021/06/17 01:29:23;;;;;;;7.18;6.13;;;17.40;99.90;;;;;;5092741;28;20020;-90
2021/06/17 01:31:51;;;;;;;6.32;5.72;;;17.40;99.90;;;;;;5092660;28;20028;-90
2021/06/17 01:34:18;;;;;;;6.72;6.13;;;17.40;99.90;;;;;;5092633;28;20054;-90
2021/06/17 01:36:50;;;;;;;6.82;6.13;;;17.40;99.90;;;;;;5092478;28;20186;-90
2021/06/17 01:39:18;;;;;;;6.70;6.10;;;17.40;99.90;;;;;;5092570;28;20031;-89
2021/06/17 01:41:47;;;;;;;6.97;6.38;;;17.40;99.90;;;;;;5092659;28;20067;-89
2021/06/17 01:44:14;;;;;;;7.55;6.72;;;17.40;99.90;;;;;;5092410;28;20073;-89
2021/06/17 01:46:41;;;;;;;7.55;6.28;;;17.50;99.90;;;;;;5111651;28;20040;-90
2021/06/17 01:49:08;;;;;;;6.03;5.53;;;17.50;99.90;;;;;;5111059;28;20453;-89
2021/06/17 01:51:36;;;;;;;5.97;5.47;;;17.50;99.90;;;;;;5093573;28;20032;-89
2021/06/17 01:54:03;;;;;;;7.82;6.95;;;17.50;99.90;;;;;;5092284;28;20024;-90
2021/06/17 01:56:31;;;;;;;7.97;7.28;;;17.50;99.90;;;;;;5093612;28;20051;-90
2021/06/17 01:59:01;;;;;;;7.78;7.05;;;17.50;99.90;;;;;;5092276;28;20023;-90
2021/06/17 02:01:31;;;;;;;8.50;7.47;;;17.50;99.90;;;;;;5107325;28;20027;-89
2021/06/17 02:03:58;;;;;;;7.80;7.10;;;17.50;99.90;;;;;;5099556;28;20020;-91
2021/06/17 02:06:27;;;;;;;7.57;6.88;;;17.50;99.90;;;;;;5092519;28;20028;-90
2021/06/17 02:08:55;;;;;;;7.25;6.53;;;17.50;99.90;;;;;;5092255;28;20032;-90
2021/06/17 02:11:22;;;;;;;7.13;6.43;;;17.50;99.90;;;;;;5092207;28;20031;-90
2021/06/17 02:13:49;;;;;;;7.10;6.40;;;17.50;99.90;;;;;;5092034;28;20024;-89
2021/06/17 02:16:16;;;;;;;7.40;6.53;;;17.60;99.90;;;;;;5091997;28;20040;-90
2021/06/17 02:18:45;;;;;;;7.28;6.55;;;17.60;99.90;;;;;;5092073;28;20024;-89
2021/06/17 02:21:13;;;;;;;8.27;7.47;;;17.60;99.90;;;;;;5092061;28;20033;-89
2021/06/17 02:23:44;;;;;;;6.88;6.28;;;17.70;99.90;;;;;;5096116;28;20054;-90
2021/06/17 02:26:11;;;;;;;8.02;7.22;;;17.60;99.90;;;;;;5096101;28;20032;-90
2021/06/17 02:28:41;;;;;;;7.13;6.53;;;17.70;99.90;;;;;;5095963;28;20024;-90
2021/06/17 02:31:10;;;;;;;7.20;6.50;;;17.70;99.90;;;;;;5095939;28;20036;-90
2021/06/17 02:33:37;;;;;;;8.68;7.78;;;17.70;99.90;;;;;;5095949;28;20016;-90
2021/06/17 02:36:04;;;;;;;7.95;6.65;;;17.70;99.90;;;;;;5095937;28;20036;-90
2021/06/17 02:38:34;;;;;;;8.00;6.93;;;17.80;99.90;;;;;;5095686;28;20040;-90
2021/06/17 02:41:03;;;;;;;7.75;7.03;;;17.80;99.90;;;;;;5095519;28;20032;-90
2021/06/17 02:43:33;;;;;;;7.43;6.72;;;17.90;99.90;;;;;;5095660;28;20020;-90
2021/06/17 02:45:58;;;;;;;7.05;6.35;;;17.90;99.90;;;;;;5095662;28;20024;-90
2021/06/17 02:48:24;;;;;;;6.78;6.18;;;17.90;99.90;;;;;;5095559;28;20024;-90
2021/06/17 02:50:51;;;;;;;7.07;6.47;;;17.90;99.90;;;;;;5095685;28;20043;-90
2021/06/17 02:53:17;;;;;;;7.85;7.15;;;18.00;99.90;;;;;;5095593;28;20401;-90
2021/06/17 02:56:17;;;;;;;7.53;6.82;;;18.00;99.90;;;;;;5096151;28;20036;-90
2021/06/17 02:58:57;;;;;;;7.82;7.13;;;18.00;99.90;;;;;;5095461;28;20476;-89
2021/06/17 03:01:43;;;;;;;8.10;7.28;;;18.10;99.90;;;;;;5095537;28;20498;-89
2021/06/17 03:04:21;;;;;;;7.20;6.50;;;18.20;99.90;;;;;;5119999;28;20043;-89
2021/06/17 03:06:52;;;;;;;6.88;6.20;;;18.30;99.90;;;;;;5107371;28;20448;-89
2021/06/17 03:09:30;;;;;;;8.35;7.47;;;18.40;99.90;;;;;;5097405;28;20020;-89
2021/06/17 03:11:58;;;;;;;7.30;6.60;;;18.50;99.90;;;;;;5095314;28;20408;-89
2021/06/17 03:14:28;;;;;;;7.22;6.53;;;18.60;99.90;;;;;;5095366;28;20362;-90
2021/06/17 03:16:56;;;;;;;7.40;6.70;;;18.70;99.90;;;;;;5095324;28;20099;-89
2021/06/17 03:19:23;;;;;;;7.50;6.80;;;18.80;99.90;;;;;;5095057;28;20031;-89
2021/06/17 03:21:53;;;;;;;7.78;6.97;;;18.90;99.90;;;;;;5094995;28;20365;-89
2021/06/17 03:24:26;;;;;;;7.95;7.25;;;19.00;99.90;;;;;;5097192;28;20016;-88
2021/06/17 03:26:53;;;;;;;7.97;7.18;;;19.10;99.90;;;;;;5095136;28;20043;-88
2021/06/17 03:29:24;;;;;;;8.23;7.28;;;19.20;99.90;;;;;;5096144;28;20024;-89
2021/06/17 03:31:50;;;;;;;7.53;6.82;;;19.30;99.90;;;;;;5094872;28;20036;-89
2021/06/17 03:34:17;;;;;;;7.60;6.90;;;19.30;99.90;;;;;;5094146;28;20033;-88
2021/06/17 03:36:44;;;;;;;7.10;6.40;;;19.40;99.90;;;;;;5094815;28;20036;-89
2021/06/17 03:39:10;;;;;;;6.97;6.38;;;19.50;99.90;;;;;;5094624;28;20043;-89
2021/06/17 03:41:37;;;;;;;8.57;5.93;;;19.60;99.90;;;;;;5094724;28;20114;-89
2021/06/17 03:44:04;;;;;;;6.25;5.70;;;19.60;99.90;;;;;;5094195;28;20031;-88
2021/06/17 03:46:30;;;;;;;6.43;5.82;;;19.70;99.90;;;;;;5092954;28;20077;-89
2021/06/17 03:48:57;;;;;;;6.65;6.05;;;19.80;99.90;;;;;;5092979;28;20028;-88
2021/06/17 03:51:24;;;;;;;6.80;6.10;;;19.90;99.90;;;;;;5094854;28;20032;-89
2021/06/17 03:53:51;;;;;;;7.60;6.88;;;19.90;99.90;;;;;;5094383;28;20461;-88
2021/06/17 03:56:25;;;;;;;6.80;6.20;;;20.00;99.90;;;;;;5095678;28;20068;-88
2021/06/17 03:58:51;;;;;;;7.38;6.47;;;20.10;99.90;;;;;;5095214;28;20052;-90
2021/06/17 04:01:18;;;;;;;7.57;6.63;;;20.20;99.90;;;;;;5094277;28;20036;-89
2021/06/17 04:03:46;;;;;;;7.30;6.60;;;20.20;99.90;;;;;;5094293;28;20028;-89
2021/06/17 04:06:16;;;;;;;7.10;6.50;;;20.30;99.90;;;;;;5110933;28;20008;-89
2021/06/17 04:08:45;;;;;;;6.78;6.18;;;20.40;99.90;;;;;;5107110;28;20110;-89
2021/06/17 04:11:22;;;;;;;8.10;5.88;;;20.40;99.90;;;;;;5094195;28;20111;-89
2021/06/17 04:13:51;;;;;;;5.45;5.03;;;20.50;99.90;;;;;;5094137;28;20373;-89
2021/06/17 04:16:22;;;;;;;6.57;5.97;;;20.60;99.90;;;;;;5093948;28;20036;-89
2021/06/17 04:18:49;;;;;;;6.22;5.63;;;20.70;99.90;;;;;;5093958;28;20024;-89
2021/06/17 04:21:19;;;;;;;6.40;5.30;;;20.80;99.90;;;;;;5094655;28;20032;-90
2021/06/17 04:23:47;;;;;;;7.68;5.70;;;20.90;99.90;;;;;;5094881;28;20028;-89
2021/06/17 04:26:18;;;;;;;5.50;5.00;;;21.00;99.90;;;;;;5093615;28;20498;-89
2021/06/17 04:28:44;;;;;;;5.45;5.05;;;21.10;99.90;;;;;;5093832;28;20024;-90
2021/06/17 04:31:12;;;;;;;6.07;5.47;;;21.20;99.90;;;;;;5093707;28;20124;-89
2021/06/17 04:33:38;;;;;;;5.93;5.32;;;21.40;99.90;;;;;;5094979;28;20477;-89
2021/06/17 04:36:04;;;;;;;6.30;5.80;;;21.50;99.90;;;;;;5093494;28;20046;-90
2021/06/17 04:38:30;;;;;;;5.80;5.30;;;21.60;99.90;;;;;;5093306;28;20107;-89
2021/06/17 04:40:57;;;;;;;6.10;5.47;;;21.60;99.90;;;;;;5093382;28;20452;-90
2021/06/17 04:43:23;;;;;;;5.43;4.93;;;21.70;99.90;;;;;;5094200;28;20020;-90
2021/06/17 04:45:53;;;;;;;5.75;5.25;;;21.80;99.90;;;;;;5093575;28;20423;-88
2021/06/17 04:48:23;;;;;;;6.75;4.70;;;21.90;99.90;;;;;;5093488;28;20504;-89
2021/06/17 04:50:49;;;;;;;5.32;4.85;;;22.10;99.90;;;;;;5093392;28;20069;-89
2021/06/17 04:53:19;;;;;;;4.97;4.57;;;22.30;99.90;;;;;;5093336;28;20085;-89
2021/06/17 04:55:50;;;;;;;4.70;4.40;;;22.40;99.90;;;;;;5093147;28;20043;-90
2021/06/17 04:58:17;;;;;;;5.13;4.72;;;22.60;99.90;;;;;;5094663;28;20035;-89
2021/06/17 05:00:43;;;;;;;5.65;4.70;;;22.80;99.90;;;;;;5092674;28;20132;-89
2021/06/17 05:03:09;;;;;;;5.63;4.78;;;22.90;99.90;;;;;;5093134;28;20027;-89
2021/06/17 05:05:35;;;;;;;5.68;4.57;;;23.00;99.90;;;;;;5094638;28;20111;-89
2021/06/17 05:10:49;;;;;;;;;;;23.50;99.90;;;;;;5092896;28;20157;-89
2021/06/17 05:13:17;;;;;;;5.00;4.50;;;23.80;99.90;;;;;;5092108;28;19911;-90
2021/06/17 05:15:43;;;;;;;4.60;4.30;;;24.00;99.90;;;;;;5090291;28;20558;-89
2021/06/17 05:18:09;;;;;;;5.57;4.40;;;24.40;99.90;;;;;;5090363;28;20055;-89
2021/06/17 05:20:34;;;;;;;4.63;4.22;;;24.90;99.90;;;;;;5091291;28;20484;-90
2021/06/17 05:23:00;;;;;;;5.35;4.30;;;25.40;99.90;;;;;;5093016;28;20032;-88
2021/06/17 05:25:27;;;;;;;4.47;4.10;;;25.80;99.90;;;;;;5094123;28;20594;-89
2021/06/17 05:27:52;;;;;;;4.45;4.00;;;26.20;99.90;;;;;;5093436;28;20427;-89
2021/06/17 05:30:19;;;;;;;4.70;4.30;;;26.70;99.90;;;;;;5094126;28;20099;-89
2021/06/17 05:32:45;;;;;;;4.15;3.85;;;27.00;99.90;;;;;;5092550;28;20035;-89
2021/06/17 05:35:12;;;;;;;4.03;3.72;;;27.30;99.90;;;;;;5092316;28;20040;-90
2021/06/17 05:37:37;;;;;;;3.95;3.50;;;27.60;99.90;;;;;;5092768;28;20391;-90
2021/06/17 05:40:04;;;;;;;3.47;3.17;;;27.90;99.90;;;;;;5092826;28;20020;-90
2021/06/17 05:42:30;;;;;;;3.70;3.40;;;28.10;99.90;;;;;;5093389;28;20070;-89
2021/06/17 05:44:56;;;;;;;3.13;2.92;;;28.40;99.90;;;;;;5093097;28;20020;-89
2021/06/17 05:47:22;;;;;;;4.00;3.70;;;28.70;99.90;;;;;;5092308;28;20050;-89
2021/06/17 05:49:48;;;;;;;3.30;3.10;;;29.00;99.90;;;;;;5092255;28;20069;-88
2021/06/17 05:52:14;;;;;;;2.80;2.60;;;29.30;99.70;;;;;;5092188;28;20044;-89
2021/06/17 05:54:40;;;;;;;3.40;2.95;;;29.60;98.10;;;;;;5090433;28;20121;-89
2021/06/17 05:57:06;;;;;;;3.15;2.95;;;29.80;96.50;;;;;;5091602;28;20036;-90
2021/06/17 05:59:32;;;;;;;3.13;2.92;;;30.00;93.80;;;;;;5090242;28;20024;-89
2021/06/17 06:01:58;;;;;;;2.90;2.70;;;30.10;91.00;;;;;;5090166;28;20039;-89
2021/06/17 06:04:24;;;;;;;2.60;2.40;;;30.00;90.40;;;;;;5091286;28;20024;-89
2021/06/17 06:06:49;;;;;;;3.78;2.60;;;30.10;88.20;;;;;;5089542;28;20077;-89
2021/06/17 06:09:15;;;;;;;3.70;2.50;;;30.10;85.40;;;;;;5090812;28;20448;-91
2021/06/17 06:11:41;;;;;;;2.95;2.75;;;30.10;83.60;;;;;;5091554;28;20138;-90
2021/06/17 06:14:07;;;;;;;2.45;2.35;;;30.20;82.80;;;;;;5094049;28;20106;-91
2021/06/17 06:16:36;;;;;;;2.58;2.40;;;30.30;82.20;;;;;;5092273;28;20039;-89
2021/06/17 06:19:02;;;;;;;3.35;2.50;;;30.50;79.20;;;;;;5090584;28;20020;-92
2021/06/17 06:21:27;;;;;;;3.83;2.67;;;30.70;79.50;;;;;;5091391;28;20464;-90
2021/06/17 06:23:53;;;;;;;3.78;2.40;;;30.80;76.10;;;;;;5090985;28;20076;-92
2021/06/17 06:26:19;;;;;;;2.90;2.40;;;31.10;76.40;;;;;;5090735;28;20067;-88
2021/06/17 06:28:45;;;;;;;2.60;2.40;;;31.40;74.40;;;;;;5092522;28;20122;-89
2021/06/17 06:31:12;;;;;;;2.60;2.40;;;31.70;72.90;;;;;;5092124;28;20028;-89
2021/06/17 06:33:38;;;;;;;5.28;2.40;;;32.00;72.20;;;;;;5091463;28;20044;-88
2021/06/17 06:36:04;;;;;;;3.67;2.30;;;32.30;70.10;;;;;;5090488;28;20083;-88
2021/06/17 06:38:30;;;;;;;3.22;2.42;;;32.50;68.90;;;;;;5091503;28;20056;-86
2021/06/17 06:40:56;;;;;;;3.40;2.38;;;32.70;67.70;;;;;;5092146;28;20572;-88
2021/06/17 06:43:22;;;;;;;2.58;2.38;;;32.90;67.40;;;;;;5091621;28;20024;-88
2021/06/17 06:45:47;;;;;;;2.40;2.30;;;33.10;66.30;;;;;;5092167;28;20036;-88
2021/06/17 06:48:13;;;;;;;2.65;2.10;;;33.40;65.50;;;;;;5093505;28;20031;-91
2021/06/17 06:50:39;;;;;;;2.17;2.08;;;33.60;63.80;;;;;;5096046;28;20032;-88
2021/06/17 06:53:05;;;;;;;2.00;1.90;;;33.70;64.00;;;;;;5088977;28;20111;-88
2021/06/17 06:55:31;;;;;;;2.20;2.10;;;33.80;63.30;;;;;;5089524;28;20489;-88
2021/06/17 06:57:57;;;;;;;2.30;2.10;;;34.00;62.60;;;;;;5093258;28;20052;-88
2021/06/17 07:00:22;;;;;;;2.03;1.92;;;34.10;62.30;;;;;;5089860;28;20020;-88
2021/06/17 07:02:48;;;;;;;2.55;2.20;;;34.30;61.90;;;;;;5090931;28;20017;-88
2021/06/17 07:05:14;;;;;;;3.63;2.22;;;34.50;61.30;;;;;;5088450;28;20126;-90
2021/06/17 07:07:41;;;;;;;2.40;2.20;;;34.60;59.80;;;;;;5087926;28;20670;-88
2021/06/17 07:10:07;;;;;;;3.05;2.30;;;34.50;59.70;;;;;;5089870;28;20020;-89
2021/06/17 07:12:34;;;;;;;2.33;2.10;;;34.60;59.20;;;;;;5093386;28;20535;-90
2021/06/17 07:15:01;;;;;;;2.00;1.90;;;34.80;59.40;;;;;;5092642;28;20064;-88
2021/06/17 07:17:27;;;;;;;2.35;2.15;;;34.90;58.60;;;;;;5092198;28;20385;-88
2021/06/17 07:19:57;;;;;;;2.92;1.90;;;35.00;58.50;;;;;;5090351;28;20020;-89
2021/06/17 07:22:23;;;;;;;2.40;2.20;;;35.10;58.40;;;;;;5092370;28;20035;-88
2021/06/17 07:24:49;;;;;;;2.20;2.10;;;35.30;56.80;;;;;;5091503;28;20024;-90
2021/06/17 07:27:15;;;;;;;2.35;2.20;;;35.30;56.80;;;;;;5101328;28;20036;-88
2021/06/17 07:29:40;;;;;;;2.42;2.20;;;35.20;56.00;;;;;;5095111;28;20027;-87
2021/06/17 07:32:08;;;;;;;1.80;1.70;;;35.00;55.00;;;;;;5094582;28;20124;-89
2021/06/17 07:34:35;;;;;;;2.00;1.90;;;35.00;56.10;;;;;;5093282;28;20103;-89
2021/06/17 07:37:01;;;;;;;1.95;1.85;;;35.20;55.10;;;;;;5094799;28;20047;-87
2021/06/17 07:39:27;;;;;;;1.80;1.70;;;35.30;54.00;;;;;;5095406;28;20384;-89
2021/06/17 07:41:52;;;;;;;1.80;1.70;;;35.20;54.80;;;;;;5094602;28;20044;-90
2021/06/17 07:44:18;;;;;;;1.90;1.80;;;35.40;55.00;;;;;;5095671;28;20020;-90
2021/06/17 07:46:44;;;;;;;2.00;1.90;;;35.80;54.70;;;;;;5094302;28;20036;-88
2021/06/17 07:49:10;;;;;;;1.70;1.60;;;36.10;54.40;;;;;;5095100;28;20107;-90
2021/06/17 07:51:44;;;;;;;1.90;1.80;;;36.30;53.10;;;;;;5093192;28;20542;-89
2021/06/17 07:54:09;;;;;;;2.20;1.95;;;36.40;52.50;;;;;;5093228;28;20020;-89
2021/06/17 07:56:48;;;;;;;2.08;1.90;;;36.20;52.30;;;;;;5091134;28;20048;-88
2021/06/17 07:59:18;;;;;;;2.13;1.80;;;36.20;52.10;;;;;;5092393;28;20108;-89
2021/06/17 08:01:45;;;;;;;3.33;1.92;;;36.40;53.00;;;;;;5094044;28;20477;-88
2021/06/17 08:04:11;;;;;;;2.08;1.90;;;36.80;52.50;;;;;;5095293;28;20016;-90
2021/06/17 08:06:36;;;;;;;1.90;1.80;;;36.80;51.40;;;;;;5093236;28;20346;-89
2021/06/17 08:09:05;;;;;;;2.08;1.60;;;36.90;51.90;;;;;;5092736;28;20385;-88
2021/06/17 08:11:31;;;;;;;1.75;1.65;;;37.10;51.90;;;;;;5095981;28;20040;-88
2021/06/17 08:13:57;;;;;;;1.75;1.65;;;37.50;51.80;;;;;;5089805;28;20485;-87
2021/06/17 08:16:22;;;;;;;1.75;1.65;;;37.80;50.70;;;;;;5086484;28;20040;-88
2021/06/17 08:18:50;;;;;;;2.15;1.73;;;38.00;50.90;;;;;;5088834;28;20039;-90
2021/06/17 08:21:15;;;;;;;1.60;1.50;;;38.10;50.20;;;;;;5089768;28;20126;-90
2021/06/17 08:23:41;;;;;;;1.73;1.60;;;38.30;49.70;;;;;;5090134;28;20181;-91
2021/06/17 08:26:07;;;;;;;3.53;1.80;;;38.30;49.40;;;;;;5091050;28;20039;-89
2021/06/17 08:28:33;;;;;;;2.10;1.90;;;38.40;49.30;;;;;;5091362;28;20024;-90
2021/06/17 08:30:59;;;;;;;2.92;1.80;;;38.50;49.10;;;;;;5090516;28;20032;-87
2021/06/17 08:33:25;;;;;;;2.25;1.70;;;38.60;48.50;;;;;;5091082;28;20279;-89
2021/06/17 08:35:53;;;;;;;1.80;1.70;;;38.40;48.70;;;;;;5092491;28;20091;-87
2021/06/17 08:38:21;;;;;;;2.00;1.90;;;38.30;48.70;;;;;;5093672;28;20477;-91
2021/06/17 08:40:47;;;;;;;2.15;1.80;;;38.10;48.00;;;;;;5091861;28;20052;-88
2021/06/17 08:43:14;;;;;;;2.50;1.83;;;38.10;48.80;;;;;;5090472;28;20081;-89
2021/06/17 08:45:40;;;;;;;2.08;1.90;;;38.40;48.70;;;;;;5091364;28;20039;-88
2021/06/17 08:48:06;;;;;;;1.80;1.67;;;38.40;48.10;;;;;;5090919;28;20020;-89
2021/06/17 08:50:32;;;;;;;1.80;1.70;;;38.30;48.50;;;;;;5090058;28;20113;-88
2021/06/17 08:52:58;;;;;;;2.05;1.95;;;38.30;48.50;;;;;;5089237;28;20409;-88
2021/06/17 08:55:27;;;;;;;3.28;1.85;;;38.10;48.40;;;;;;5092390;28;20505;-89
2021/06/17 08:57:57;;;;;;;2.15;1.95;;;38.10;48.70;;;;;;5092440;28;20024;-89
2021/06/17 09:00:25;;;;;;;2.38;1.95;;;38.10;49.00;;;;;;5091514;28;20101;-91
2021/06/17 09:03:02;;;;;;;1.90;1.80;;;38.20;48.90;;;;;;5097287;28;20051;-89
2021/06/17 09:05:29;;;;;;;6.15;1.88;;;38.40;48.70;;;;;;5090854;28;20027;-90
2021/06/17 09:07:59;;;;;;;2.55;1.75;;;38.80;48.80;;;;;;5092784;28;20024;-89
2021/06/17 09:10:25;;;;;;;3.70;1.95;;;39.10;48.10;;;;;;5091751;28;20020;-91
2021/06/17 09:12:53;;;;;;;2.10;2.00;;;39.10;48.10;;;;;;5090339;28;20108;-90
2021/06/17 09:15:42;;;;;;;10.07;2.00;;;39.30;47.90;;;;;;5092001;28;20031;-89
2021/06/17 09:18:12;;;;;;;2.05;1.92;;;39.40;47.20;;;;;;5091837;28;20046;-89
2021/06/17 09:20:43;;;;;;;3.95;1.80;;;39.50;47.60;;;;;;5093192;28;20052;-89
2021/06/17 09:23:33;;;;;;;2.20;2.00;;;39.60;47.70;;;;;;5092586;28;20070;-89
2021/06/17 09:26:00;;;;;;;4.47;2.00;;;39.90;46.80;;;;;;5091761;28;20055;-90
2021/06/17 09:28:28;;;;;;;3.45;1.88;;;40.20;47.20;;;;;;5094287;28;20103;-89
2021/06/17 09:30:54;;;;;;;2.88;1.80;;;40.70;47.00;;;;;;5093006;28;20153;-89
2021/06/17 09:33:25;;;;;;;2.85;2.13;;;40.80;46.40;;;;;;5092910;28;20100;-90
2021/06/17 09:35:58;;;;;;;2.30;2.10;;;40.80;46.40;;;;;;5093393;28;20373;-89
2021/06/17 09:38:25;;;;;;;2.30;2.10;;;40.80;45.80;;;;;;5093475;28;20461;-91
2021/06/17 09:40:52;;;;;;;5.28;2.00;;;40.70;45.50;;;;;;5095365;28;20499;-89
2021/06/17 09:43:21;;;;;;;5.47;2.10;;;40.70;45.50;;;;;;5094623;28;20043;-89
2021/06/17 09:45:59;;;;;;;2.33;2.03;;;40.70;45.40;;;;;;5095665;28;20067;-87
2021/06/17 09:48:45;;;;;;;2.17;1.92;;;40.80;45.30;;;;;;5095574;28;20043;-90
2021/06/17 09:51:29;;;;;;;4.50;2.10;;;40.90;45.00;;;;;;5092924;28;20480;-90
2021/06/17 09:54:25;;;;;;;2.10;2.00;;;41.00;44.80;;;;;;5092847;28;20129;-89
2021/06/17 09:57:01;;;;;;;2.30;2.10;;;41.20;44.50;;;;;;5084135;28;20056;-89
2021/06/17 09:59:49;;;;;;;3.22;2.10;;;41.20;44.70;;;;;;5092557;28;20423;-90
2021/06/17 10:02:32;;;;;;;2.85;2.17;;;41.40;44.50;;;;;;5095011;28;20040;-90
2021/06/17 10:05:18;;;;;;;3.88;2.10;;;41.50;44.60;;;;;;5097119;28;20388;-89
2021/06/17 10:07:44;;;;;;;4.78;2.45;;;41.50;43.50;;;;;;5094311;28;20032;-88
2021/06/17 10:10:12;;;;;;;2.28;2.10;;;41.20;44.30;;;;;;5092535;28;20495;-89
2021/06/17 10:12:40;;;;;;;2.75;2.20;;;41.30;44.20;;;;;;5143263;22;20027;-93
2021/06/17 10:15:07;;;;;;;2.15;2.05;;;41.50;44.20;;;;;;5107951;28;20040;-92
2021/06/17 10:17:33;;;;;;;2.20;2.10;;;41.60;43.90;;;;;;5107165;28;20031;-92
2021/06/17 10:20:07;;;;;;;2.22;2.03;;;41.80;43.40;;;;;;5102276;28;20032;-91
2021/06/17 10:22:37;;;;;;;2.97;2.30;;;41.80;43.30;;;;;;5090925;28;20027;-90
2021/06/17 10:25:05;;;;;;;3.08;2.25;;;41.70;42.70;;;;;;5107864;28;20019;-92
2021/06/17 10:27:35;;;;;;;2.22;2.13;;;41.00;42.30;;;;;;5101021;28;20095;-92
2021/06/17 10:30:02;;;;;;;2.58;2.20;;;40.70;43.10;;;;;;5084068;28;20118;-92
2021/06/17 10:32:40;;;;;;;2.55;2.30;;;40.50;43.20;;;;;;5101610;28;20028;-91
2021/06/17 10:35:07;;;;;;;2.60;2.00;;;40.30;43.40;;;;;;5106082;28;20031;-90
2021/06/17 10:37:52;;;;;;;2.83;2.40;;;39.90;43.40;;;;;;5117448;28;20032;-90
2021/06/17 10:40:24;;;;;;;2.58;2.25;;;39.50;44.00;;;;;;5100102;28;20016;-93
2021/06/17 10:42:52;;;;;;;2.92;2.67;;;39.40;44.40;;;;;;5105153;28;20027;-90
2021/06/17 10:45:33;;;;;;;2.50;2.30;;;39.40;44.30;;;;;;5111172;28;20031;-92
2021/06/17 10:48:07;;;;;;;2.53;2.33;;;39.50;44.40;;;;;;5100852;28;20045;-92
2021/06/17 10:50:39;;;;;;;2.60;2.40;;;39.60;44.40;;;;;;5099402;28;20358;-93
2021/06/17 10:53:21;;;;;;;3.58;2.60;;;39.90;44.40;;;;;;5101057;28;20031;-91
2021/06/17 10:56:00;;;;;;;2.70;2.50;;;40.20;44.30;;;;;;5102160;28;20067;-90
2021/06/17 10:58:41;;;;;;;2.80;2.47;;;40.40;43.80;;;;;;5114204;28;20031;-90
2021/06/17 11:01:41;;;;;;;4.45;2.40;;;40.30;43.60;;;;;;5103277;28;20020;-91
2021/06/17 11:04:13;;;;;;;2.28;2.10;;;40.10;44.20;;;;;;5102592;28;20076;-90
2021/06/17 11:06:48;;;;;;;3.08;2.40;;;40.20;44.70;;;;;;5103244;28;20034;-90
2021/06/17 11:09:39;;;;;;;3.97;2.25;;;40.30;44.20;;;;;;5101579;28;20019;-90
2021/06/17 11:12:17;;;;;;;3.30;2.55;;;40.50;44.40;;;;;;5106354;28;20110;-90
2021/06/17 11:14:48;;;;;;;3.22;2.60;;;40.30;44.20;;;;;;5100891;28;20184;-91
2021/06/17 11:17:37;;;;;;;2.85;2.45;;;40.20;44.70;;;;;;5105380;28;20043;-92
2021/06/17 11:20:20;;;;;;;2.50;2.20;;;40.60;44.40;;;;;;5109138;28;20020;-94
2021/06/17 11:22:59;;;;;;;2.70;2.50;;;40.50;43.80;;;;;;5119879;28;20027;-92
2021/06/17 11:25:30;;;;;;;3.15;2.35;;;40.20;43.90;;;;;;5109514;28;20062;-92
2021/06/17 11:28:03;;;;;;;3.30;2.60;;;40.20;44.30;;;;;;5100900;28;20023;-91
2021/06/17 11:30:55;;;;;;;3.95;2.60;;;40.30;43.60;;;;;;5101780;28;20110;-91
2021/06/17 11:33:24;;;;;;;4.05;2.38;;;40.20;43.60;;;;;;5093797;28;20049;-91
2021/06/17 11:35:58;;;;;;;4.78;2.58;;;40.60;43.50;;;;;;5103538;28;20092;-89
2021/06/17 11:38:24;;;;;;;5.32;2.38;;;40.70;43.20;;;;;;5101388;28;20024;-90
2021/06/17 11:40:50;;;;;;;2.33;2.10;;;40.90;43.20;;;;;;5102878;28;20027;-89
2021/06/17 11:43:29;;;;;;;2.53;2.20;;;41.00;42.80;;;;;;5100398;28;20110;-91
2021/06/17 11:45:55;;;;;;;2.58;2.38;;;40.80;42.30;;;;;;5119684;28;20047;-90
2021/06/17 11:48:21;;;;;;;2.80;2.35;;;40.70;43.00;;;;;;5101784;28;20027;-89
2021/06/17 11:50:50;;;;;;;2.30;2.10;;;40.60;43.30;;;;;;5119194;28;20020;-90
2021/06/17 11:53:22;;;;;;;3.45;2.50;;;40.60;43.20;;;;;;5098735;28;20122;-89
2021/06/17 11:55:57;;;;;;;2.35;2.10;;;40.30;42.80;;;;;;5101891;28;20039;-91
2021/06/17 11:58:27;;;;;;;2.58;2.38;;;39.90;42.80;;;;;;5116842;28;20171;-90
2021/06/17 12:00:53;;;;;;;2.55;2.35;;;39.60;43.40;;;;;;5101512;28;20494;-90
2021/06/17 12:03:24;;;;;;;3.85;2.28;;;39.70;43.50;;;;;;5102756;28;20077;-89
2021/06/17 12:06:08;;;;;;;2.85;2.50;;;39.70;43.40;;;;;;5100589;28;20031;-90
2021/06/17 12:08:34;;;;;;;3.80;2.30;;;39.70;43.70;;;;;;5099386;28;20020;-92
2021/06/17 12:11:02;;;;;;;2.50;2.33;;;39.70;44.30;;;;;;5100038;28;20094;-91
2021/06/17 12:13:28;;;;;;;3.35;2.50;;;40.20;44.20;;;;;;5098425;28;20063;-90
2021/06/17 12:15:58;;;;;;;2.42;2.22;;;40.80;43.70;;;;;;5101211;28;20035;-92
2021/06/17 12:18:24;;;;;;;2.50;2.30;;;41.30;42.90;;;;;;5100973;28;20027;-91
2021/06/17 12:20:51;;;;;;;2.20;2.00;;;41.40;42.50;;;;;;5102059;28;20484;-90
2021/06/17 12:23:30;;;;;;;2.30;2.10;;;41.50;42.50;;;;;;5100877;28;20031;-90
2021/06/17 12:26:01;;;;;;;4.28;2.22;;;41.80;42.30;;;;;;5114144;28;20053;-89
2021/06/17 12:28:28;;;;;;;2.40;2.20;;;42.10;42.00;;;;;;5119715;28;20015;-89
2021/06/17 12:30:56;;;;;;;4.15;2.10;;;42.30;41.80;;;;;;5123091;28;20116;-90
2021/06/17 12:33:24;;;;;;;2.17;2.08;;;42.30;41.50;;;;;;5102272;28;20114;-90
2021/06/17 12:36:02;;;;;;;2.30;2.05;;;42.10;41.30;;;;;;5100538;28;20559;-91
2021/06/17 12:38:33;;;;;;;2.75;2.03;;;41.80;41.50;;;;;;5100214;28;20031;-92
2021/06/17 12:41:15;;;;;;;2.15;1.95;;;41.60;41.50;;;;;;5099881;28;20027;-91
2021/06/17 12:43:46;;;;;;;4.65;2.17;;;41.20;41.70;;;;;;5105990;28;20027;-90
2021/06/17 12:46:14;;;;;;;2.80;2.60;;;40.50;42.00;;;;;;5113749;28;20033;-90
2021/06/17 12:54:04;;;;;;;2.97;2.30;;;38.40;43.90;;;;;;5128743;28;20042;-92
2021/06/17 12:56:33;;;;;;;2.78;2.58;;;37.80;44.50;;;;;;5123497;28;20042;-93
2021/06/17 12:58:59;;;;;;;2.75;2.50;;;37.20;45.20;;;;;;5124390;28;20083;-90
2021/06/17 13:01:50;;;;;;;3.53;2.72;;;36.60;45.90;;;;;;5108402;28;20102;-93
2021/06/17 13:04:17;;;;;;;2.88;2.40;;;36.30;47.10;;;;;;5115791;28;20022;-92
2021/06/17 13:06:43;;;;;;;2.72;2.53;;;36.00;46.90;;;;;;5113256;28;20043;-90
2021/06/17 13:09:39;;;;;;;3.30;2.50;;;35.90;46.70;;;;;;5106154;28;20027;-92